No particular awareness of the weather is required.    There are no Weather-warnings


Meteo18 Weather Cam more information Meteo18 Weather Cam


Thunder radar more information blitzortung!


Rain radar more information rain snow radar


Visit our other weather sites:

Template documentation
and downloads

And another site



Weather Underground History page Text

Daily Summary for April 23, 2017 Units:  Both    English   Metric
« Previous Day
Next Day »
Daily Weekly Monthly Yearly Custom
  High: Low: Average:
Temperature: 57.7 °F /  14.3 °C 41.5 °F /  5.3 °C 49.6 °F /  9.8 °C
Dew Point: 42.8 °F /  6.0 °C 32 °F /  0.0 °C 36.3 °F /  2.4 °C
Humidity: 88 % 39 % 62 %
Wind Speed: 22 mph /  35.4 km/h - 6.3 mph /  10.2 km/h
Wind Gust: 27 mph /  43.4 km/h - -
Wind:- - ENE
Pressure: 30.3 in /  1026.3 hPa 30.2 in /  1022.2 hPa -
Precipitation: 0 in /  0.0 mm    
Historical Graphs
 
 
Tabular Data for April 23, 2017
Time Temperature Dew Point Pressure Wind Wind Speed Wind Gust Humidity Rainfall Rate (Hourly)
00:02 48.7 °F /  9.3 °C 42.8 °F /  6.0 °C 30.3 in /  1025.6 hPa North 2 mph /  3.2 km/h 10 mph /  16.1 km/h 80 % 0 in /  0.0 mm
00:12 48 °F /  8.9 °C 42.4 °F /  5.8 °C 30.3 in /  1025.6 hPa NNE 1 mph /  1.6 km/h 8 mph /  12.9 km/h 81 % 0 in /  0.0 mm
00:17 47.8 °F /  8.8 °C 42.6 °F /  5.9 °C 30.3 in /  1025.6 hPa North 1 mph /  1.6 km/h 4 mph /  6.4 km/h 82 % 0 in /  0.0 mm
00:22 47.5 °F /  8.6 °C 42.3 °F /  5.7 °C 30.3 in /  1025.6 hPa North 3 mph /  4.8 km/h 5 mph /  8.0 km/h 82 % 0 in /  0.0 mm
00:27 47.3 °F /  8.5 °C 42.4 °F /  5.8 °C 30.3 in /  1025.6 hPa Calm   5 mph /  8.0 km/h 83 % 0 in /  0.0 mm
00:32 46.9 °F /  8.3 °C 42.1 °F /  5.6 °C 30.3 in /  1025.6 hPa NNW 2 mph /  3.2 km/h 4 mph /  6.4 km/h 83 % 0 in /  0.0 mm
00:37 46.8 °F /  8.2 °C 42.3 °F /  5.7 °C 30.3 in /  1025.6 hPa NNE 2 mph /  3.2 km/h 4 mph /  6.4 km/h 84 % 0 in /  0.0 mm
00:42 46.6 °F /  8.1 °C 42.1 °F /  5.6 °C 30.3 in /  1025.6 hPa NNE 3 mph /  4.8 km/h 4 mph /  6.4 km/h 84 % 0 in /  0.0 mm
00:52 46.6 °F /  8.1 °C 42.3 °F /  5.7 °C 30.3 in /  1025.6 hPa Calm   6 mph /  9.7 km/h 85 % 0 in /  0.0 mm
00:57 46.4 °F /  8.0 °C 42.1 °F /  5.6 °C 30.3 in /  1025.6 hPa NNE 1 mph /  1.6 km/h 6 mph /  9.7 km/h 85 % 0 in /  0.0 mm
01:02 46 °F /  7.8 °C 41.7 °F /  5.4 °C 30.3 in /  1025.6 hPa NNW 2 mph /  3.2 km/h 6 mph /  9.7 km/h 85 % 0 in /  0.0 mm
01:12 45.9 °F /  7.7 °C 41.9 °F /  5.5 °C 30.3 in /  1026.0 hPa NNW 1 mph /  1.6 km/h 4 mph /  6.4 km/h 86 % 0 in /  0.0 mm
01:17 46 °F /  7.8 °C 42.1 °F /  5.6 °C 30.3 in /  1026.0 hPa North 1 mph /  1.6 km/h 3 mph /  4.8 km/h 86 % 0 in /  0.0 mm
01:22 46 °F /  7.8 °C 42.1 °F /  5.6 °C 30.3 in /  1026.0 hPa NE 1 mph /  1.6 km/h 3 mph /  4.8 km/h 86 % 0 in /  0.0 mm
01:32 46.2 °F /  7.9 °C 42.3 °F /  5.7 °C 30.3 in /  1025.6 hPa North 2 mph /  3.2 km/h 4 mph /  6.4 km/h 86 % 0 in /  0.0 mm
01:37 46 °F /  7.8 °C 41.7 °F /  5.4 °C 30.3 in /  1025.6 hPa NE 2 mph /  3.2 km/h 6 mph /  9.7 km/h 85 % 0 in /  0.0 mm
01:42 46.2 °F /  7.9 °C 41.9 °F /  5.5 °C 30.3 in /  1025.6 hPa NNE 5 mph /  8.0 km/h 6 mph /  9.7 km/h 85 % 0 in /  0.0 mm
01:47 46.6 °F /  8.1 °C 42.3 °F /  5.7 °C 30.3 in /  1025.6 hPa NNE 2 mph /  3.2 km/h 9 mph /  14.5 km/h 85 % 0 in /  0.0 mm
01:52 46.8 °F /  8.2 °C 42.3 °F /  5.7 °C 30.3 in /  1025.6 hPa NE 8 mph /  12.9 km/h 9 mph /  14.5 km/h 84 % 0 in /  0.0 mm
01:57 47.1 °F /  8.4 °C 42.3 °F /  5.7 °C 30.3 in /  1025.6 hPa NNE 7 mph /  11.3 km/h 11 mph /  17.7 km/h 83 % 0 in /  0.0 mm
02:02 47.3 °F /  8.5 °C 42.1 °F /  5.6 °C 30.3 in /  1026.0 hPa NNE 10 mph /  16.1 km/h 11 mph /  17.7 km/h 82 % 0 in /  0.0 mm
02:07 47.1 °F /  8.4 °C 41.9 °F /  5.5 °C 30.3 in /  1026.0 hPa NNE 4 mph /  6.4 km/h 11 mph /  17.7 km/h 82 % 0 in /  0.0 mm
02:12 46.9 °F /  8.3 °C 41.7 °F /  5.4 °C 30.3 in /  1025.6 hPa NNE 1 mph /  1.6 km/h 11 mph /  17.7 km/h 82 % 0 in /  0.0 mm
02:17 46.9 °F /  8.3 °C 41.7 °F /  5.4 °C 30.3 in /  1025.6 hPa NE 1 mph /  1.6 km/h 10 mph /  16.1 km/h 82 % 0 in /  0.0 mm
02:22 46.9 °F /  8.3 °C 41.7 °F /  5.4 °C 30.3 in /  1025.6 hPa NNE 6 mph /  9.7 km/h 10 mph /  16.1 km/h 82 % 0 in /  0.0 mm
02:27 46.8 °F /  8.2 °C 41.5 °F /  5.3 °C 30.3 in /  1025.6 hPa NW 3 mph /  4.8 km/h 10 mph /  16.1 km/h 82 % 0 in /  0.0 mm
02:32 46.6 °F /  8.1 °C 41.4 °F /  5.2 °C 30.3 in /  1025.6 hPa NNE 5 mph /  8.0 km/h 10 mph /  16.1 km/h 82 % 0 in /  0.0 mm
02:37 46.6 °F /  8.1 °C 41.4 °F /  5.2 °C 30.3 in /  1025.6 hPa NNE 6 mph /  9.7 km/h 8 mph /  12.9 km/h 82 % 0 in /  0.0 mm
02:42 46.2 °F /  7.9 °C 41 °F /  5.0 °C 30.3 in /  1025.3 hPa Calm   8 mph /  12.9 km/h 82 % 0 in /  0.0 mm
02:52 46 °F /  7.8 °C 41.2 °F /  5.1 °C 30.3 in /  1025.3 hPa NE 4 mph /  6.4 km/h 8 mph /  12.9 km/h 83 % 0 in /  0.0 mm
02:57 46 °F /  7.8 °C 41.2 °F /  5.1 °C 30.3 in /  1025.3 hPa NE 7 mph /  11.3 km/h 8 mph /  12.9 km/h 83 % 0 in /  0.0 mm
03:02 46.2 °F /  7.9 °C 41.4 °F /  5.2 °C 30.3 in /  1025.6 hPa NE 5 mph /  8.0 km/h 8 mph /  12.9 km/h 83 % 0 in /  0.0 mm
03:12 46.2 °F /  7.9 °C 41.4 °F /  5.2 °C 30.3 in /  1025.6 hPa NNE 4 mph /  6.4 km/h 11 mph /  17.7 km/h 83 % 0 in /  0.0 mm
03:17 46 °F /  7.8 °C 40.8 °F /  4.9 °C 30.3 in /  1025.6 hPa NNE 8 mph /  12.9 km/h 10 mph /  16.1 km/h 82 % 0 in /  0.0 mm
03:22 45.9 °F /  7.7 °C 41 °F /  5.0 °C 30.3 in /  1025.6 hPa North 2 mph /  3.2 km/h 10 mph /  16.1 km/h 83 % 0 in /  0.0 mm
03:32 45.3 °F /  7.4 °C 40.8 °F /  4.9 °C 30.3 in /  1025.6 hPa NNE 3 mph /  4.8 km/h 9 mph /  14.5 km/h 84 % 0 in /  0.0 mm
03:37 45 °F /  7.2 °C 40.5 °F /  4.7 °C 30.3 in /  1025.3 hPa NW 2 mph /  3.2 km/h 7 mph /  11.3 km/h 84 % 0 in /  0.0 mm
03:42 44.8 °F /  7.1 °C 40.5 °F /  4.7 °C 30.3 in /  1025.3 hPa NNE 1 mph /  1.6 km/h 7 mph /  11.3 km/h 85 % 0 in /  0.0 mm
03:47 44.4 °F /  6.9 °C 40.3 °F /  4.6 °C 30.3 in /  1025.6 hPa NNW 1 mph /  1.6 km/h 6 mph /  9.7 km/h 85 % 0 in /  0.0 mm
03:52 44.2 °F /  6.8 °C 40.1 °F /  4.5 °C 30.3 in /  1025.6 hPa NE 3 mph /  4.8 km/h 6 mph /  9.7 km/h 85 % 0 in /  0.0 mm
03:57 44.2 °F /  6.8 °C 40.1 °F /  4.5 °C 30.3 in /  1025.6 hPa North 3 mph /  4.8 km/h 9 mph /  14.5 km/h 85 % 0 in /  0.0 mm
04:02 44.1 °F /  6.7 °C 39.9 °F /  4.4 °C 30.3 in /  1025.6 hPa North 3 mph /  4.8 km/h 9 mph /  14.5 km/h 85 % 0 in /  0.0 mm
04:12 43.7 °F /  6.5 °C 40.1 °F /  4.5 °C 30.3 in /  1025.6 hPa NE 1 mph /  1.6 km/h 9 mph /  14.5 km/h 87 % 0 in /  0.0 mm
04:17 43.5 °F /  6.4 °C 39.9 °F /  4.4 °C 30.3 in /  1025.3 hPa NNE 5 mph /  8.0 km/h 7 mph /  11.3 km/h 87 % 0 in /  0.0 mm
04:22 43.5 °F /  6.4 °C 39.9 °F /  4.4 °C 30.3 in /  1025.3 hPa NW 1 mph /  1.6 km/h 7 mph /  11.3 km/h 87 % 0 in /  0.0 mm
04:32 43.3 °F /  6.3 °C 39.7 °F /  4.3 °C 30.3 in /  1025.3 hPa North 5 mph /  8.0 km/h 7 mph /  11.3 km/h 87 % 0 in /  0.0 mm
04:42 43.3 °F /  6.3 °C 39.7 °F /  4.3 °C 30.3 in /  1025.3 hPa NNW 6 mph /  9.7 km/h 7 mph /  11.3 km/h 87 % 0 in /  0.0 mm
04:47 43.2 °F /  6.2 °C 39.9 °F /  4.4 °C 30.3 in /  1025.3 hPa Calm   10 mph /  16.1 km/h 88 % 0 in /  0.0 mm
04:52 43 °F /  6.1 °C 39.7 °F /  4.3 °C 30.3 in /  1025.3 hPa East 4 mph /  6.4 km/h 10 mph /  16.1 km/h 88 % 0 in /  0.0 mm
05:02 42.6 °F /  5.9 °C 39.4 °F /  4.1 °C 30.3 in /  1025.3 hPa ENE 1 mph /  1.6 km/h 9 mph /  14.5 km/h 88 % 0 in /  0.0 mm
05:12 42.4 °F /  5.8 °C 39.2 °F /  4.0 °C 30.3 in /  1025.3 hPa NNE 3 mph /  4.8 km/h 11 mph /  17.7 km/h 88 % 0 in /  0.0 mm
05:17 42.3 °F /  5.7 °C 39 °F /  3.9 °C 30.3 in /  1025.3 hPa NE 2 mph /  3.2 km/h 9 mph /  14.5 km/h 88 % 0 in /  0.0 mm
05:22 42.1 °F /  5.6 °C 38.8 °F /  3.8 °C 30.3 in /  1025.3 hPa ENE 1 mph /  1.6 km/h 9 mph /  14.5 km/h 88 % 0 in /  0.0 mm
05:32 41.5 °F /  5.3 °C 38.3 °F /  3.5 °C 30.3 in /  1025.3 hPa NNE 2 mph /  3.2 km/h 9 mph /  14.5 km/h 88 % 0 in /  0.0 mm
05:42 41.5 °F /  5.3 °C 37.9 °F /  3.3 °C 30.3 in /  1025.3 hPa NNE 4 mph /  6.4 km/h 8 mph /  12.9 km/h 87 % 0 in /  0.0 mm
05:47 41.5 °F /  5.3 °C 37.9 °F /  3.3 °C 30.3 in /  1025.3 hPa NE 9 mph /  14.5 km/h 9 mph /  14.5 km/h 87 % 0 in /  0.0 mm
05:52 41.7 °F /  5.4 °C 37.8 °F /  3.2 °C 30.3 in /  1025.3 hPa NNE 3 mph /  4.8 km/h 8 mph /  12.9 km/h 86 % 0 in /  0.0 mm
05:57 42.1 °F /  5.6 °C 37.9 °F /  3.3 °C 30.3 in /  1025.3 hPa North 6 mph /  9.7 km/h 13 mph /  20.9 km/h 85 % 0 in /  0.0 mm
06:02 42.1 °F /  5.6 °C 37.9 °F /  3.3 °C 30.3 in /  1025.3 hPa NNE 5 mph /  8.0 km/h 13 mph /  20.9 km/h 85 % 0 in /  0.0 mm
06:12 42.3 °F /  5.7 °C 37.4 °F /  3.0 °C 30.3 in /  1025.6 hPa ENE 4 mph /  6.4 km/h 15 mph /  24.1 km/h 83 % 0 in /  0.0 mm
06:17 42.3 °F /  5.7 °C 37.4 °F /  3.0 °C 30.3 in /  1025.6 hPa NE 10 mph /  16.1 km/h 15 mph /  24.1 km/h 83 % 0 in /  0.0 mm
06:22 42.3 °F /  5.7 °C 37.4 °F /  3.0 °C 30.3 in /  1025.6 hPa NNE 11 mph /  17.7 km/h 15 mph /  24.1 km/h 83 % 0 in /  0.0 mm
06:32 41.9 °F /  5.5 °C 37 °F /  2.8 °C 30.3 in /  1025.6 hPa NNE 6 mph /  9.7 km/h 13 mph /  20.9 km/h 83 % 0 in /  0.0 mm
06:37 41.7 °F /  5.4 °C 36.9 °F /  2.7 °C 30.3 in /  1025.6 hPa NNE 8 mph /  12.9 km/h 13 mph /  20.9 km/h 83 % 0 in /  0.0 mm
06:42 41.7 °F /  5.4 °C 36.7 °F /  2.6 °C 30.3 in /  1025.6 hPa NE 5 mph /  8.0 km/h 13 mph /  20.9 km/h 82 % 0 in /  0.0 mm
06:47 41.7 °F /  5.4 °C 36.7 °F /  2.6 °C 30.3 in /  1025.6 hPa NNE 9 mph /  14.5 km/h 15 mph /  24.1 km/h 82 % 0 in /  0.0 mm
06:52 41.7 °F /  5.4 °C 36.3 °F /  2.4 °C 30.3 in /  1025.6 hPa NE 12 mph /  19.3 km/h 15 mph /  24.1 km/h 81 % 0 in /  0.0 mm
06:57 41.7 °F /  5.4 °C 36 °F /  2.2 °C 30.3 in /  1025.6 hPa NE 10 mph /  16.1 km/h 14 mph /  22.5 km/h 80 % 0 in /  0.0 mm
07:02 41.5 °F /  5.3 °C 35.8 °F /  2.1 °C 30.3 in /  1025.6 hPa NNW 7 mph /  11.3 km/h 14 mph /  22.5 km/h 80 % 0 in /  0.0 mm
07:07 41.7 °F /  5.4 °C 35.8 °F /  2.1 °C 30.3 in /  1025.6 hPa NNE 10 mph /  16.1 km/h 14 mph /  22.5 km/h 79 % 0 in /  0.0 mm
07:12 41.7 °F /  5.4 °C 35.8 °F /  2.1 °C 30.3 in /  1025.6 hPa NE 7 mph /  11.3 km/h 14 mph /  22.5 km/h 79 % 0 in /  0.0 mm
07:17 41.7 °F /  5.4 °C 35.4 °F /  1.9 °C 30.3 in /  1026.0 hPa ENE 4 mph /  6.4 km/h 14 mph /  22.5 km/h 78 % 0 in /  0.0 mm
07:22 41.9 °F /  5.5 °C 35.6 °F /  2.0 °C 30.3 in /  1026.0 hPa NNE 7 mph /  11.3 km/h 15 mph /  24.1 km/h 78 % 0 in /  0.0 mm
07:32 42.3 °F /  5.7 °C 35.6 °F /  2.0 °C 30.3 in /  1026.0 hPa NE 6 mph /  9.7 km/h 12 mph /  19.3 km/h 77 % 0 in /  0.0 mm
07:37 42.3 °F /  5.7 °C 35.2 °F /  1.8 °C 30.3 in /  1026.0 hPa NNE 4 mph /  6.4 km/h 12 mph /  19.3 km/h 76 % 0 in /  0.0 mm
07:42 42.4 °F /  5.8 °C 35.4 °F /  1.9 °C 30.3 in /  1026.0 hPa NNE 8 mph /  12.9 km/h 10 mph /  16.1 km/h 76 % 0 in /  0.0 mm
07:47 42.4 °F /  5.8 °C 35.1 °F /  1.7 °C 30.3 in /  1026.0 hPa NE 3 mph /  4.8 km/h 10 mph /  16.1 km/h 75 % 0 in /  0.0 mm
07:52 42.6 °F /  5.9 °C 35.2 °F /  1.8 °C 30.3 in /  1026.0 hPa NNE 3 mph /  4.8 km/h 11 mph /  17.7 km/h 75 % 0 in /  0.0 mm
07:57 42.8 °F /  6.0 °C 35.4 °F /  1.9 °C 30.3 in /  1026.0 hPa NNE 7 mph /  11.3 km/h 11 mph /  17.7 km/h 75 % 0 in /  0.0 mm
08:02 43 °F /  6.1 °C 35.6 °F /  2.0 °C 30.3 in /  1026.0 hPa NE 5 mph /  8.0 km/h 11 mph /  17.7 km/h 75 % 0 in /  0.0 mm
08:12 43.2 °F /  6.2 °C 35.4 °F /  1.9 °C 30.3 in /  1026.0 hPa NNE 6 mph /  9.7 km/h 12 mph /  19.3 km/h 74 % 0 in /  0.0 mm
08:17 43.3 °F /  6.3 °C 35.6 °F /  2.0 °C 30.3 in /  1026.0 hPa NNE 7 mph /  11.3 km/h 12 mph /  19.3 km/h 74 % 0 in /  0.0 mm
08:22 43.7 °F /  6.5 °C 36.3 °F /  2.4 °C 30.3 in /  1026.0 hPa NE 9 mph /  14.5 km/h 13 mph /  20.9 km/h 75 % 0 in /  0.0 mm
08:32 44.1 °F /  6.7 °C 36.3 °F /  2.4 °C 30.3 in /  1026.0 hPa NE 6 mph /  9.7 km/h 11 mph /  17.7 km/h 74 % 0 in /  0.0 mm
08:42 44.8 °F /  7.1 °C 36.3 °F /  2.4 °C 30.3 in /  1026.0 hPa NE 7 mph /  11.3 km/h 11 mph /  17.7 km/h 72 % 0 in /  0.0 mm
08:47 44.8 °F /  7.1 °C 36 °F /  2.2 °C 30.3 in /  1026.0 hPa NE 5 mph /  8.0 km/h 11 mph /  17.7 km/h 71 % 0 in /  0.0 mm
08:52 45.1 °F /  7.3 °C 36 °F /  2.2 °C 30.3 in /  1026.0 hPa NE 11 mph /  17.7 km/h 13 mph /  20.9 km/h 70 % 0 in /  0.0 mm
08:57 45.3 °F /  7.4 °C 35.8 °F /  2.1 °C 30.3 in /  1026.3 hPa NE 5 mph /  8.0 km/h 13 mph /  20.9 km/h 69 % 0 in /  0.0 mm
09:02 45.3 °F /  7.4 °C 35.4 °F /  1.9 °C 30.3 in /  1026.0 hPa North 11 mph /  17.7 km/h 13 mph /  20.9 km/h 68 % 0 in /  0.0 mm
09:07 45.7 °F /  7.6 °C 35.8 °F /  2.1 °C 30.3 in /  1026.0 hPa NNE 6 mph /  9.7 km/h 13 mph /  20.9 km/h 68 % 0 in /  0.0 mm
09:12 46 °F /  7.8 °C 35.8 °F /  2.1 °C 30.3 in /  1026.0 hPa NNE 6 mph /  9.7 km/h 13 mph /  20.9 km/h 67 % 0 in /  0.0 mm
09:17 46.6 °F /  8.1 °C 36.1 °F /  2.3 °C 30.3 in /  1026.3 hPa NE 6 mph /  9.7 km/h 13 mph /  20.9 km/h 67 % 0 in /  0.0 mm
09:22 46.9 °F /  8.3 °C 35.8 °F /  2.1 °C 30.3 in /  1026.3 hPa NE 4 mph /  6.4 km/h 13 mph /  20.9 km/h 65 % 0 in /  0.0 mm
09:27 47.1 °F /  8.4 °C 36 °F /  2.2 °C 30.3 in /  1026.0 hPa NNE 6 mph /  9.7 km/h 13 mph /  20.9 km/h 65 % 0 in /  0.0 mm
09:32 47.5 °F /  8.6 °C 35.6 °F /  2.0 °C 30.3 in /  1026.0 hPa NNE 6 mph /  9.7 km/h 11 mph /  17.7 km/h 63 % 0 in /  0.0 mm
09:37 47.7 °F /  8.7 °C 35.6 °F /  2.0 °C 30.3 in /  1026.0 hPa ENE 8 mph /  12.9 km/h 11 mph /  17.7 km/h 63 % 0 in /  0.0 mm
09:42 48 °F /  8.9 °C 35.2 °F /  1.8 °C 30.3 in /  1026.0 hPa NE 12 mph /  19.3 km/h 14 mph /  22.5 km/h 61 % 0 in /  0.0 mm
09:47 48.4 °F /  9.1 °C 35.1 °F /  1.7 °C 30.3 in /  1026.0 hPa NNE 7 mph /  11.3 km/h 14 mph /  22.5 km/h 60 % 0 in /  0.0 mm
09:52 48.7 °F /  9.3 °C 36.3 °F /  2.4 °C 30.3 in /  1026.0 hPa NNE 11 mph /  17.7 km/h 18 mph /  29.0 km/h 62 % 0 in /  0.0 mm
09:57 48.7 °F /  9.3 °C 34.7 °F /  1.5 °C 30.3 in /  1026.0 hPa North 12 mph /  19.3 km/h 18 mph /  29.0 km/h 58 % 0 in /  0.0 mm
10:02 48.7 °F /  9.3 °C 35.1 °F /  1.7 °C 30.3 in /  1026.0 hPa NNE 9 mph /  14.5 km/h 20 mph /  32.2 km/h 59 % 0 in /  0.0 mm
10:12 48.9 °F /  9.4 °C 34.9 °F /  1.6 °C 30.3 in /  1026.0 hPa ENE 14 mph /  22.5 km/h 20 mph /  32.2 km/h 58 % 0 in /  0.0 mm
10:17 49.1 °F /  9.5 °C 35.4 °F /  1.9 °C 30.3 in /  1026.0 hPa ENE 7 mph /  11.3 km/h 20 mph /  32.2 km/h 59 % 0 in /  0.0 mm
10:22 49.1 °F /  9.5 °C 34.9 °F /  1.6 °C 30.3 in /  1026.0 hPa NE 8 mph /  12.9 km/h 18 mph /  29.0 km/h 58 % 0 in /  0.0 mm
10:32 49.5 °F /  9.7 °C 35.2 °F /  1.8 °C 30.3 in /  1026.0 hPa NNE 14 mph /  22.5 km/h 18 mph /  29.0 km/h 58 % 0 in /  0.0 mm
10:37 49.5 °F /  9.7 °C 35.8 °F /  2.1 °C 30.3 in /  1026.0 hPa NE 8 mph /  12.9 km/h 18 mph /  29.0 km/h 59 % 0 in /  0.0 mm
10:42 49.6 °F /  9.8 °C 36 °F /  2.2 °C 30.3 in /  1026.0 hPa NE 12 mph /  19.3 km/h 20 mph /  32.2 km/h 59 % 0 in /  0.0 mm
10:47 49.8 °F /  9.9 °C 35.6 °F /  2.0 °C 30.3 in /  1026.0 hPa ENE 11 mph /  17.7 km/h 20 mph /  32.2 km/h 58 % 0 in /  0.0 mm
10:57 50.2 °F /  10.1 °C 34.7 °F /  1.5 °C 30.3 in /  1026.0 hPa North 13 mph /  20.9 km/h 18 mph /  29.0 km/h 55 % 0 in /  0.0 mm
11:02 50.4 °F /  10.2 °C 35.2 °F /  1.8 °C 30.3 in /  1026.0 hPa NNE 8 mph /  12.9 km/h 21 mph /  33.8 km/h 56 % 0 in /  0.0 mm
11:07 50.7 °F /  10.4 °C 35.1 °F /  1.7 °C 30.3 in /  1026.0 hPa ENE 8 mph /  12.9 km/h 21 mph /  33.8 km/h 55 % 0 in /  0.0 mm
11:12 50.7 °F /  10.4 °C 34.7 °F /  1.5 °C 30.3 in /  1026.0 hPa NE 12 mph /  19.3 km/h 21 mph /  33.8 km/h 54 % 0 in /  0.0 mm
11:17 51.1 °F /  10.6 °C 35.4 °F /  1.9 °C 30.3 in /  1026.0 hPa ENE 9 mph /  14.5 km/h 21 mph /  33.8 km/h 55 % 0 in /  0.0 mm
11:22 51.1 °F /  10.6 °C 34.5 °F /  1.4 °C 30.3 in /  1026.0 hPa ENE 5 mph /  8.0 km/h 19 mph /  30.6 km/h 53 % 0 in /  0.0 mm
11:32 51.3 °F /  10.7 °C 34.7 °F /  1.5 °C 30.3 in /  1026.0 hPa ENE 13 mph /  20.9 km/h 20 mph /  32.2 km/h 53 % 0 in /  0.0 mm
11:42 52 °F /  11.1 °C 36.3 °F /  2.4 °C 30.3 in /  1026.0 hPa NE 9 mph /  14.5 km/h 20 mph /  32.2 km/h 55 % 0 in /  0.0 mm
11:47 52.3 °F /  11.3 °C 35.2 °F /  1.8 °C 30.3 in /  1026.0 hPa NNE 7 mph /  11.3 km/h 20 mph /  32.2 km/h 52 % 0 in /  0.0 mm
11:52 52.3 °F /  11.3 °C 35.8 °F /  2.1 °C 30.3 in /  1026.0 hPa NNE 22 mph /  35.4 km/h 22 mph /  35.4 km/h 53 % 0 in /  0.0 mm
11:57 52.2 °F /  11.2 °C 36 °F /  2.2 °C 30.3 in /  1026.0 hPa NNE 9 mph /  14.5 km/h 19 mph /  30.6 km/h 54 % 0 in /  0.0 mm
12:02 52.5 °F /  11.4 °C 34.9 °F /  1.6 °C 30.3 in /  1026.0 hPa North 9 mph /  14.5 km/h 22 mph /  35.4 km/h 51 % 0 in /  0.0 mm
12:07 52.3 °F /  11.3 °C 35.2 °F /  1.8 °C 30.3 in /  1026.0 hPa ENE 14 mph /  22.5 km/h 22 mph /  35.4 km/h 52 % 0 in /  0.0 mm
12:12 52.2 °F /  11.2 °C 34.5 °F /  1.4 °C 30.3 in /  1026.0 hPa NE 9 mph /  14.5 km/h 20 mph /  32.2 km/h 51 % 0 in /  0.0 mm
12:17 52.3 °F /  11.3 °C 35.2 °F /  1.8 °C 30.3 in /  1026.0 hPa NE 15 mph /  24.1 km/h 20 mph /  32.2 km/h 52 % 0 in /  0.0 mm
12:22 52.2 °F /  11.2 °C 35.6 °F /  2.0 °C 30.3 in /  1026.0 hPa NE 10 mph /  16.1 km/h 27 mph /  43.4 km/h 53 % 0 in /  0.0 mm
12:32 53.1 °F /  11.7 °C 33.8 °F /  1.0 °C 30.3 in /  1025.6 hPa North 11 mph /  17.7 km/h 27 mph /  43.4 km/h 48 % 0 in /  0.0 mm
12:37 53.2 °F /  11.8 °C 35.1 °F /  1.7 °C 30.3 in /  1025.6 hPa East 6 mph /  9.7 km/h 25 mph /  40.2 km/h 50 % 0 in /  0.0 mm
12:42 53.8 °F /  12.1 °C 35.6 °F /  2.0 °C 30.3 in /  1025.6 hPa North 10 mph /  16.1 km/h 25 mph /  40.2 km/h 50 % 0 in /  0.0 mm
12:47 53.6 °F /  12.0 °C 34.9 °F /  1.6 °C 30.3 in /  1025.3 hPa NNW 11 mph /  17.7 km/h 25 mph /  40.2 km/h 49 % 0 in /  0.0 mm
12:52 53.4 °F /  11.9 °C 35.8 °F /  2.1 °C 30.3 in /  1025.6 hPa NNE 12 mph /  19.3 km/h 25 mph /  40.2 km/h 51 % 0 in /  0.0 mm
12:57 53.2 °F /  11.8 °C 34.5 °F /  1.4 °C 30.3 in /  1025.6 hPa NE 13 mph /  20.9 km/h 25 mph /  40.2 km/h 49 % 0 in /  0.0 mm
13:02 53.4 °F /  11.9 °C 34.7 °F /  1.5 °C 30.3 in /  1025.3 hPa NNE 7 mph /  11.3 km/h 22 mph /  35.4 km/h 49 % 0 in /  0.0 mm
13:12 54.3 °F /  12.4 °C 35.1 °F /  1.7 °C 30.3 in /  1025.3 hPa NE 8 mph /  12.9 km/h 22 mph /  35.4 km/h 48 % 0 in /  0.0 mm
13:17 54.3 °F /  12.4 °C 36.1 °F /  2.3 °C 30.3 in /  1025.3 hPa East 9 mph /  14.5 km/h 17 mph /  27.4 km/h 50 % 0 in /  0.0 mm
13:22 54.3 °F /  12.4 °C 35.1 °F /  1.7 °C 30.3 in /  1024.9 hPa ENE 11 mph /  17.7 km/h 17 mph /  27.4 km/h 48 % 0 in /  0.0 mm
13:32 54.7 °F /  12.6 °C 36 °F /  2.2 °C 30.3 in /  1024.9 hPa NNE 9 mph /  14.5 km/h 20 mph /  32.2 km/h 49 % 0 in /  0.0 mm
13:37 54.9 °F /  12.7 °C 36.5 °F /  2.5 °C 30.3 in /  1024.9 hPa NE 10 mph /  16.1 km/h 19 mph /  30.6 km/h 50 % 0 in /  0.0 mm
13:42 55 °F /  12.8 °C 36.1 °F /  2.3 °C 30.3 in /  1024.9 hPa East 11 mph /  17.7 km/h 19 mph /  30.6 km/h 49 % 0 in /  0.0 mm
13:47 55.2 °F /  12.9 °C 36.9 °F /  2.7 °C 30.3 in /  1024.9 hPa East 12 mph /  19.3 km/h 18 mph /  29.0 km/h 50 % 0 in /  0.0 mm
13:52 55.9 °F /  13.3 °C 36 °F /  2.2 °C 30.3 in /  1024.9 hPa NNE 13 mph /  20.9 km/h 18 mph /  29.0 km/h 47 % 0 in /  0.0 mm
14:02 55.9 °F /  13.3 °C 37 °F /  2.8 °C 30.3 in /  1024.6 hPa ENE 3 mph /  4.8 km/h 17 mph /  27.4 km/h 49 % 0 in /  0.0 mm
14:12 55.8 °F /  13.2 °C 34.7 °F /  1.5 °C 30.3 in /  1024.6 hPa NW 13 mph /  20.9 km/h 19 mph /  30.6 km/h 45 % 0 in /  0.0 mm
14:17 55.9 °F /  13.3 °C 34.9 °F /  1.6 °C 30.3 in /  1024.6 hPa NNE 17 mph /  27.4 km/h 20 mph /  32.2 km/h 45 % 0 in /  0.0 mm
14:22 55.9 °F /  13.3 °C 34.3 °F /  1.3 °C 30.3 in /  1024.6 hPa NW 6 mph /  9.7 km/h 20 mph /  32.2 km/h 44 % 0 in /  0.0 mm
14:32 55.8 °F /  13.2 °C 32.4 °F /  0.2 °C 30.3 in /  1024.6 hPa NNE 11 mph /  17.7 km/h 19 mph /  30.6 km/h 41 % 0 in /  0.0 mm
14:37 55.4 °F /  13.0 °C 32.7 °F /  0.4 °C 30.3 in /  1024.3 hPa NNW 13 mph /  20.9 km/h 20 mph /  32.2 km/h 42 % 0 in /  0.0 mm
14:42 55.9 °F /  13.3 °C 33.8 °F /  1.0 °C 30.3 in /  1024.3 hPa ENE 8 mph /  12.9 km/h 20 mph /  32.2 km/h 43 % 0 in /  0.0 mm
14:47 55.9 °F /  13.3 °C 32.5 °F /  0.3 °C 30.3 in /  1024.3 hPa ENE 11 mph /  17.7 km/h 18 mph /  29.0 km/h 41 % 0 in /  0.0 mm
14:52 56.3 °F /  13.5 °C 32.9 °F /  0.5 °C 30.3 in /  1024.3 hPa NE 10 mph /  16.1 km/h 18 mph /  29.0 km/h 41 % 0 in /  0.0 mm
14:57 56.1 °F /  13.4 °C 32.7 °F /  0.4 °C 30.3 in /  1024.3 hPa WNW 4 mph /  6.4 km/h 19 mph /  30.6 km/h 41 % 0 in /  0.0 mm
15:02 56.1 °F /  13.4 °C 33.3 °F /  0.7 °C 30.3 in /  1024.3 hPa NW 10 mph /  16.1 km/h 19 mph /  30.6 km/h 42 % 0 in /  0.0 mm
15:07 56.1 °F /  13.4 °C 33.3 °F /  0.7 °C 30.3 in /  1024.3 hPa NE 5 mph /  8.0 km/h 19 mph /  30.6 km/h 42 % 0 in /  0.0 mm
15:12 56.7 °F /  13.7 °C 35.1 °F /  1.7 °C 30.2 in /  1023.9 hPa NNE 12 mph /  19.3 km/h 19 mph /  30.6 km/h 44 % 0 in /  0.0 mm
15:17 56.7 °F /  13.7 °C 33.8 °F /  1.0 °C 30.2 in /  1023.9 hPa NE 8 mph /  12.9 km/h 17 mph /  27.4 km/h 42 % 0 in /  0.0 mm
15:22 56.7 °F /  13.7 °C 33.3 °F /  0.7 °C 30.2 in /  1023.9 hPa ENE 8 mph /  12.9 km/h 17 mph /  27.4 km/h 41 % 0 in /  0.0 mm
15:27 56.8 °F /  13.8 °C 32.2 °F /  0.1 °C 30.2 in /  1023.9 hPa East 8 mph /  12.9 km/h 18 mph /  29.0 km/h 39 % 0 in /  0.0 mm
15:32 56.8 °F /  13.8 °C 33.4 °F /  0.8 °C 30.2 in /  1023.9 hPa North 11 mph /  17.7 km/h 18 mph /  29.0 km/h 41 % 0 in /  0.0 mm
15:37 56.7 °F /  13.7 °C 33.3 °F /  0.7 °C 30.2 in /  1023.6 hPa NNE 9 mph /  14.5 km/h 20 mph /  32.2 km/h 41 % 0 in /  0.0 mm
15:42 56.8 °F /  13.8 °C 33.4 °F /  0.8 °C 30.2 in /  1023.6 hPa NE 5 mph /  8.0 km/h 20 mph /  32.2 km/h 41 % 0 in /  0.0 mm
15:47 56.8 °F /  13.8 °C 33.4 °F /  0.8 °C 30.2 in /  1023.6 hPa ENE 5 mph /  8.0 km/h 18 mph /  29.0 km/h 41 % 0 in /  0.0 mm
15:52 56.5 °F /  13.6 °C 32.4 °F /  0.2 °C 30.2 in /  1023.6 hPa NNE 7 mph /  11.3 km/h 18 mph /  29.0 km/h 40 % 0 in /  0.0 mm
16:02 56.8 °F /  13.8 °C 33.4 °F /  0.8 °C 30.2 in /  1023.2 hPa NE 7 mph /  11.3 km/h 18 mph /  29.0 km/h 41 % 0 in /  0.0 mm
16:12 56.7 °F /  13.7 °C 32 °F /  0.0 °C 30.2 in /  1023.2 hPa ENE 10 mph /  16.1 km/h 19 mph /  30.6 km/h 39 % 0 in /  0.0 mm
16:17 57 °F /  13.9 °C 34.7 °F /  1.5 °C 30.2 in /  1023.2 hPa North 7 mph /  11.3 km/h 18 mph /  29.0 km/h 43 % 0 in /  0.0 mm
16:22 57.4 °F /  14.1 °C 33.8 °F /  1.0 °C 30.2 in /  1023.2 hPa ENE 8 mph /  12.9 km/h 18 mph /  29.0 km/h 41 % 0 in /  0.0 mm
16:32 57.6 °F /  14.2 °C 35.2 °F /  1.8 °C 30.2 in /  1023.2 hPa North 8 mph /  12.9 km/h 18 mph /  29.0 km/h 43 % 0 in /  0.0 mm
16:37 57.7 °F /  14.3 °C 33.6 °F /  0.9 °C 30.2 in /  1023.2 hPa ENE 7 mph /  11.3 km/h 15 mph /  24.1 km/h 40 % 0 in /  0.0 mm
16:42 57.6 °F /  14.2 °C 34 °F /  1.1 °C 30.2 in /  1023.2 hPa ENE 8 mph /  12.9 km/h 15 mph /  24.1 km/h 41 % 0 in /  0.0 mm
16:47 57.2 °F /  14.0 °C 34.9 °F /  1.6 °C 30.2 in /  1023.2 hPa NE 7 mph /  11.3 km/h 17 mph /  27.4 km/h 43 % 0 in /  0.0 mm
16:52 57.6 °F /  14.2 °C 34 °F /  1.1 °C 30.2 in /  1023.2 hPa NE 4 mph /  6.4 km/h 17 mph /  27.4 km/h 41 % 0 in /  0.0 mm
16:57 57.6 °F /  14.2 °C 34.7 °F /  1.5 °C 30.2 in /  1022.9 hPa NNE 5 mph /  8.0 km/h 17 mph /  27.4 km/h 42 % 0 in /  0.0 mm
17:02 57.6 °F /  14.2 °C 34.7 °F /  1.5 °C 30.2 in /  1022.9 hPa NE 13 mph /  20.9 km/h 17 mph /  27.4 km/h 42 % 0 in /  0.0 mm
17:12 57.7 °F /  14.3 °C 34.9 °F /  1.6 °C 30.2 in /  1022.9 hPa NE 8 mph /  12.9 km/h 16 mph /  25.7 km/h 42 % 0 in /  0.0 mm
17:17 57.7 °F /  14.3 °C 34.2 °F /  1.2 °C 30.2 in /  1022.9 hPa NE 6 mph /  9.7 km/h 15 mph /  24.1 km/h 41 % 0 in /  0.0 mm
17:22 57.6 °F /  14.2 °C 33.4 °F /  0.8 °C 30.2 in /  1022.9 hPa NNE 8 mph /  12.9 km/h 15 mph /  24.1 km/h 40 % 0 in /  0.0 mm
17:32 57.6 °F /  14.2 °C 34 °F /  1.1 °C 30.2 in /  1022.9 hPa ENE 5 mph /  8.0 km/h 19 mph /  30.6 km/h 41 % 0 in /  0.0 mm
17:42 57.6 °F /  14.2 °C 34.7 °F /  1.5 °C 30.2 in /  1022.9 hPa NE 4 mph /  6.4 km/h 16 mph /  25.7 km/h 42 % 0 in /  0.0 mm
17:47 57.7 °F /  14.3 °C 34.2 °F /  1.2 °C 30.2 in /  1022.9 hPa NNE 12 mph /  19.3 km/h 16 mph /  25.7 km/h 41 % 0 in /  0.0 mm
17:52 57.6 °F /  14.2 °C 35.2 °F /  1.8 °C 30.2 in /  1022.6 hPa ENE 5 mph /  8.0 km/h 16 mph /  25.7 km/h 43 % 0 in /  0.0 mm
17:57 57.6 °F /  14.2 °C 34.7 °F /  1.5 °C 30.2 in /  1022.6 hPa NNE 7 mph /  11.3 km/h 17 mph /  27.4 km/h 42 % 0 in /  0.0 mm
18:02 57.4 °F /  14.1 °C 33.8 °F /  1.0 °C 30.2 in /  1022.6 hPa NE 6 mph /  9.7 km/h 17 mph /  27.4 km/h 41 % 0 in /  0.0 mm
18:07 57.6 °F /  14.2 °C 35.2 °F /  1.8 °C 30.2 in /  1022.6 hPa NNE 9 mph /  14.5 km/h 15 mph /  24.1 km/h 43 % 0 in /  0.0 mm
18:12 57.4 °F /  14.1 °C 33.8 °F /  1.0 °C 30.2 in /  1022.6 hPa ENE 6 mph /  9.7 km/h 15 mph /  24.1 km/h 41 % 0 in /  0.0 mm
18:17 57.4 °F /  14.1 °C 33.8 °F /  1.0 °C 30.2 in /  1022.6 hPa ENE 9 mph /  14.5 km/h 18 mph /  29.0 km/h 41 % 0 in /  0.0 mm
18:22 57.4 °F /  14.1 °C 35.1 °F /  1.7 °C 30.2 in /  1022.6 hPa NNE 9 mph /  14.5 km/h 18 mph /  29.0 km/h 43 % 0 in /  0.0 mm
18:27 57.4 °F /  14.1 °C 33.8 °F /  1.0 °C 30.2 in /  1022.6 hPa ENE 8 mph /  12.9 km/h 18 mph /  29.0 km/h 41 % 0 in /  0.0 mm
18:32 57.2 °F /  14.0 °C 34.3 °F /  1.3 °C 30.2 in /  1022.6 hPa ENE 6 mph /  9.7 km/h 14 mph /  22.5 km/h 42 % 0 in /  0.0 mm
18:42 56.8 °F /  13.8 °C 34.5 °F /  1.4 °C 30.2 in /  1022.6 hPa NNE 7 mph /  11.3 km/h 15 mph /  24.1 km/h 43 % 0 in /  0.0 mm
18:52 56.5 °F /  13.6 °C 34.3 °F /  1.3 °C 30.2 in /  1022.6 hPa ENE 9 mph /  14.5 km/h 15 mph /  24.1 km/h 43 % 0 in /  0.0 mm
18:57 56.7 °F /  13.7 °C 35.1 °F /  1.7 °C 30.2 in /  1022.6 hPa NE 9 mph /  14.5 km/h 17 mph /  27.4 km/h 44 % 0 in /  0.0 mm
19:02 56.7 °F /  13.7 °C 34.3 °F /  1.3 °C 30.2 in /  1022.6 hPa ENE 7 mph /  11.3 km/h 17 mph /  27.4 km/h 43 % 0 in /  0.0 mm
19:12 56.5 °F /  13.6 °C 34.3 °F /  1.3 °C 30.2 in /  1022.6 hPa NE 9 mph /  14.5 km/h 17 mph /  27.4 km/h 43 % 0 in /  0.0 mm
19:17 56.3 °F /  13.5 °C 34.7 °F /  1.5 °C 30.2 in /  1022.2 hPa NE 5 mph /  8.0 km/h 12 mph /  19.3 km/h 44 % 0 in /  0.0 mm
19:22 55.9 °F /  13.3 °C 34.3 °F /  1.3 °C 30.2 in /  1022.2 hPa NNE 7 mph /  11.3 km/h 12 mph /  19.3 km/h 44 % 0 in /  0.0 mm
19:32 55.8 °F /  13.2 °C 34.7 °F /  1.5 °C 30.2 in /  1022.2 hPa NNE 6 mph /  9.7 km/h 16 mph /  25.7 km/h 45 % 0 in /  0.0 mm
19:42 55.6 °F /  13.1 °C 34.5 °F /  1.4 °C 30.2 in /  1022.2 hPa NNE 9 mph /  14.5 km/h 17 mph /  27.4 km/h 45 % 0 in /  0.0 mm
19:47 55.4 °F /  13.0 °C 34.3 °F /  1.3 °C 30.2 in /  1022.2 hPa NE 8 mph /  12.9 km/h 17 mph /  27.4 km/h 45 % 0 in /  0.0 mm
19:52 55.2 °F /  12.9 °C 34.9 °F /  1.6 °C 30.2 in /  1022.2 hPa NNE 6 mph /  9.7 km/h 17 mph /  27.4 km/h 46 % 0 in /  0.0 mm
19:57 55 °F /  12.8 °C 34.7 °F /  1.5 °C 30.2 in /  1022.2 hPa ENE 6 mph /  9.7 km/h 15 mph /  24.1 km/h 46 % 0 in /  0.0 mm
20:02 54.9 °F /  12.7 °C 34.5 °F /  1.4 °C 30.2 in /  1022.2 hPa NE 9 mph /  14.5 km/h 15 mph /  24.1 km/h 46 % 0 in /  0.0 mm
20:07 54.7 °F /  12.6 °C 34.3 °F /  1.3 °C 30.2 in /  1022.2 hPa NNW 6 mph /  9.7 km/h 13 mph /  20.9 km/h 46 % 0 in /  0.0 mm
20:12 54.5 °F /  12.5 °C 34.7 °F /  1.5 °C 30.2 in /  1022.2 hPa NNE 8 mph /  12.9 km/h 13 mph /  20.9 km/h 47 % 0 in /  0.0 mm
20:17 54.1 °F /  12.3 °C 34.3 °F /  1.3 °C 30.2 in /  1022.2 hPa NNE 9 mph /  14.5 km/h 14 mph /  22.5 km/h 47 % 0 in /  0.0 mm
20:22 54 °F /  12.2 °C 34.7 °F /  1.5 °C 30.2 in /  1022.2 hPa NNE 6 mph /  9.7 km/h 14 mph /  22.5 km/h 48 % 0 in /  0.0 mm
20:32 53.2 °F /  11.8 °C 34.5 °F /  1.4 °C 30.2 in /  1022.2 hPa NE 9 mph /  14.5 km/h 11 mph /  17.7 km/h 49 % 0 in /  0.0 mm
20:37 53.2 °F /  11.8 °C 34.5 °F /  1.4 °C 30.2 in /  1022.2 hPa NNE 8 mph /  12.9 km/h 12 mph /  19.3 km/h 49 % 0 in /  0.0 mm
20:47 52.3 °F /  11.3 °C 34.2 °F /  1.2 °C 30.2 in /  1022.2 hPa NE 6 mph /  9.7 km/h 12 mph /  19.3 km/h 50 % 0 in /  0.0 mm
20:52 52.2 °F /  11.2 °C 34.2 °F /  1.2 °C 30.2 in /  1022.2 hPa NE 3 mph /  4.8 km/h 12 mph /  19.3 km/h 50 % 0 in /  0.0 mm
20:57 52 °F /  11.1 °C 34.3 °F /  1.3 °C 30.2 in /  1022.2 hPa NE 5 mph /  8.0 km/h 11 mph /  17.7 km/h 51 % 0 in /  0.0 mm
21:02 51.8 °F /  11.0 °C 34.2 °F /  1.2 °C 30.2 in /  1022.2 hPa North 4 mph /  6.4 km/h 11 mph /  17.7 km/h 51 % 0 in /  0.0 mm
21:12 51.1 °F /  10.6 °C 34.5 °F /  1.4 °C 30.2 in /  1022.2 hPa North 3 mph /  4.8 km/h 12 mph /  19.3 km/h 53 % 0 in /  0.0 mm
21:17 50.5 °F /  10.3 °C 34.5 °F /  1.4 °C 30.2 in /  1022.2 hPa NE 2 mph /  3.2 km/h 10 mph /  16.1 km/h 54 % 0 in /  0.0 mm
21:22 50.2 °F /  10.1 °C 34.7 °F /  1.5 °C 30.2 in /  1022.2 hPa Calm   10 mph /  16.1 km/h 55 % 0 in /  0.0 mm
21:27 50 °F /  10.0 °C 34.9 °F /  1.6 °C 30.2 in /  1022.2 hPa NNW 1 mph /  1.6 km/h 9 mph /  14.5 km/h 56 % 0 in /  0.0 mm
21:32 49.6 °F /  9.8 °C 34.5 °F /  1.4 °C 30.2 in /  1022.2 hPa NNW 1 mph /  1.6 km/h 9 mph /  14.5 km/h 56 % 0 in /  0.0 mm
21:37 49.3 °F /  9.6 °C 34.7 °F /  1.5 °C 30.2 in /  1022.6 hPa Calm   9 mph /  14.5 km/h 57 % 0 in /  0.0 mm
21:47 48.7 °F /  9.3 °C 34.7 °F /  1.5 °C 30.2 in /  1022.6 hPa NNE 4 mph /  6.4 km/h 5 mph /  8.0 km/h 58 % 0 in /  0.0 mm
21:52 48.4 °F /  9.1 °C 34.7 °F /  1.5 °C 30.2 in /  1022.6 hPa North 3 mph /  4.8 km/h 5 mph /  8.0 km/h 59 % 0 in /  0.0 mm
21:57 48.2 °F /  9.0 °C 34.5 °F /  1.4 °C 30.2 in /  1022.6 hPa ENE 1 mph /  1.6 km/h 6 mph /  9.7 km/h 59 % 0 in /  0.0 mm
22:02 48.4 °F /  9.1 °C 34.7 °F /  1.5 °C 30.2 in /  1022.6 hPa NE 6 mph /  9.7 km/h 6 mph /  9.7 km/h 59 % 0 in /  0.0 mm
22:12 48 °F /  8.9 °C 34.3 °F /  1.3 °C 30.2 in /  1022.6 hPa NNE 7 mph /  11.3 km/h 8 mph /  12.9 km/h 59 % 0 in /  0.0 mm
22:22 47.8 °F /  8.8 °C 34.7 °F /  1.5 °C 30.2 in /  1022.6 hPa NNE 2 mph /  3.2 km/h 7 mph /  11.3 km/h 60 % 0 in /  0.0 mm
22:32 47.5 °F /  8.6 °C 34.7 °F /  1.5 °C 30.2 in /  1022.6 hPa North 1 mph /  1.6 km/h 7 mph /  11.3 km/h 61 % 0 in /  0.0 mm
22:42 47.5 °F /  8.6 °C 34.7 °F /  1.5 °C 30.2 in /  1022.6 hPa NW 1 mph /  1.6 km/h 5 mph /  8.0 km/h 61 % 0 in /  0.0 mm
22:47 47.5 °F /  8.6 °C 34.7 °F /  1.5 °C 30.2 in /  1022.6 hPa North 6 mph /  9.7 km/h 7 mph /  11.3 km/h 61 % 0 in /  0.0 mm
22:52 47.3 °F /  8.5 °C 34.5 °F /  1.4 °C 30.2 in /  1022.6 hPa NNE 4 mph /  6.4 km/h 7 mph /  11.3 km/h 61 % 0 in /  0.0 mm
22:57 47.1 °F /  8.4 °C 34.3 °F /  1.3 °C 30.2 in /  1022.6 hPa North 4 mph /  6.4 km/h 7 mph /  11.3 km/h 61 % 0 in /  0.0 mm
23:02 46.9 °F /  8.3 °C 34.5 °F /  1.4 °C 30.2 in /  1022.6 hPa North 1 mph /  1.6 km/h 7 mph /  11.3 km/h 62 % 0 in /  0.0 mm
23:12 46.9 °F /  8.3 °C 34.5 °F /  1.4 °C 30.2 in /  1022.2 hPa NNE 3 mph /  4.8 km/h 9 mph /  14.5 km/h 62 % 0 in /  0.0 mm
23:17 46.8 °F /  8.2 °C 34.5 °F /  1.4 °C 30.2 in /  1022.2 hPa North 1 mph /  1.6 km/h 9 mph /  14.5 km/h 62 % 0 in /  0.0 mm
23:22 46.6 °F /  8.1 °C 34.3 °F /  1.3 °C 30.2 in /  1022.2 hPa NNE 1 mph /  1.6 km/h 9 mph /  14.5 km/h 62 % 0 in /  0.0 mm
23:32 46 °F /  7.8 °C 34.2 °F /  1.2 °C 30.2 in /  1022.2 hPa NNE 1 mph /  1.6 km/h 7 mph /  11.3 km/h 63 % 0 in /  0.0 mm
23:47 45.3 °F /  7.4 °C 34.3 °F /  1.3 °C 30.2 in /  1022.2 hPa NW 1 mph /  1.6 km/h 5 mph /  8.0 km/h 65 % 0 in /  0.0 mm
23:52 45.1 °F /  7.3 °C 34.2 °F /  1.2 °C 30.2 in /  1022.2 hPa NW 2 mph /  3.2 km/h 5 mph /  8.0 km/h 65 % 0 in /  0.0 mm
23:57 45.1 °F /  7.3 °C 34.2 °F /  1.2 °C 30.2 in /  1022.2 hPa NW 3 mph /  4.8 km/h 4 mph /  6.4 km/h 65 % 0 in /  0.0 mm
Meteo18
Compliments of Weather Underground - 4 mb

Script developed by  Jim McMurry - jmcmurry@mwt.net Adapted for the template by  Wim van der Kuil - Leuven-Template.eu

You find our weather info also at:

European Weather Network

Weather Underground

Equipment we use:

Weather-station
Davis Vue

Weather-program
Meteohub

Weather-server
Raspberry PI 2 B+

Provider
1 and 1

Davis Vue

Meteohub

Raspberry PI 2 B+

1 and 1